Time;durP1;ratioP1;P1;durP2;ratioP2;P2;SDS_P1;SDS_P2;PMS_P1;PMS_P2;Temp;Humidity;BMP_temperature;BMP_pressure;BME280_temperature;BME280_humidity;BME280_pressure;Samples;Min_cycle;Max_cycle;Signal;HPM_P1;HPM_P2
2021/06/26 00:00:51;;;;;;;3.63;2.77;;;;;;;;;;5023693;28;20655;-76
2021/06/26 00:03:55;;;;;;;3.07;2.77;;;;;;;;;;5035327;28;20173;-76
2021/06/26 00:07:00;;;;;;;4.43;3.23;;;;;;;;;;5034451;28;20575;-77
2021/06/26 00:10:06;;;;;;;4.80;3.07;;;;;;;;;;5015137;28;20205;-76
2021/06/26 00:13:11;;;;;;;3.60;2.90;;;;;;;;;;5017408;28;20205;-77
2021/06/26 00:16:15;;;;;;;2.90;2.60;;;;;;;;;;5035614;28;20189;-76
2021/06/26 00:19:19;;;;;;;4.33;3.20;;;;;;;;;;5032382;28;20654;-76
2021/06/26 00:22:23;;;;;;;4.33;3.10;;;;;;;;;;5034542;28;20188;-77
2021/06/26 00:25:28;;;;;;;4.47;2.83;;;;;;;;;;5034933;28;20220;-77
2021/06/26 00:28:35;;;;;;;4.50;2.80;;;;;;;;;;5033020;28;20236;-77
2021/06/26 00:31:40;;;;;;;3.50;3.20;;;;;;;;;;5035647;28;20532;-76
2021/06/26 00:34:44;;;;;;;5.23;3.27;;;;;;;;;;5030705;28;20188;-76
2021/06/26 00:37:49;;;;;;;4.80;2.90;;;;;;;;;;5028141;28;20212;-77
2021/06/26 00:40:53;;;;;;;5.83;3.17;;;;;;;;;;5034095;28;20544;-76
2021/06/26 00:43:57;;;;;;;5.10;3.10;;;;;;;;;;5035341;28;20208;-77
2021/06/26 00:47:02;;;;;;;7.70;3.40;;;;;;;;;;5009820;28;20220;-76
2021/06/26 00:50:20;;;;;;;3.60;3.30;;;;;;;;;;5033415;28;20193;-76
2021/06/26 00:53:24;;;;;;;3.47;3.10;;;;;;;;;;5034543;28;20690;-76
2021/06/26 00:56:28;;;;;;;4.23;3.03;;;;;;;;;;5033813;28;20188;-77
2021/06/26 00:59:32;;;;;;;3.23;2.90;;;;;;;;;;5024696;28;20532;-77
2021/06/26 01:02:36;;;;;;;4.20;3.23;;;;;;;;;;5033045;28;20547;-76
2021/06/26 01:05:40;;;;;;;4.00;3.37;;;;;;;;;;5034910;28;20208;-76
2021/06/26 01:08:44;;;;;;;4.43;3.10;;;;;;;;;;5033080;28;20591;-77
2021/06/26 01:11:48;;;;;;;3.43;2.93;;;;;;;;;;5033230;28;20185;-77
2021/06/26 01:14:52;;;;;;;4.80;3.07;;;;;;;;;;5033337;28;20640;-76
2021/06/26 01:17:56;;;;;;;5.07;3.70;;;;;;;;;;5032753;28;20216;-76
2021/06/26 01:21:07;;;;;;;3.87;3.47;;;;;;;;;;5033320;28;20567;-77
2021/06/26 01:24:11;;;;;;;5.70;3.47;;;;;;;;;;5033868;28;20551;-77
2021/06/26 01:27:16;;;;;;;3.53;3.20;;;;;;;;;;5026627;28;20220;-77
2021/06/26 01:30:30;;;;;;;3.70;3.20;;;;;;;;;;5033207;28;20201;-77
2021/06/26 01:33:34;;;;;;;5.80;3.00;;;;;;;;;;5026225;28;20189;-77
2021/06/26 01:36:39;;;;;;;8.50;3.80;;;;;;;;;;5033604;28;20184;-76
2021/06/26 01:39:43;;;;;;;6.63;3.77;;;;;;;;;;5028974;28;20204;-76
2021/06/26 01:42:49;;;;;;;4.07;3.67;;;;;;;;;;5032592;28;20188;-77
2021/06/26 01:45:53;;;;;;;3.47;3.17;;;;;;;;;;5038279;28;20228;-76
2021/06/26 01:49:11;;;;;;;4.37;3.40;;;;;;;;;;5022807;28;20544;-77
2021/06/26 01:52:15;;;;;;;6.80;3.80;;;;;;;;;;5015695;28;20182;-77
2021/06/26 01:55:21;;;;;;;4.53;3.67;;;;;;;;;;5032889;28;20196;-77
2021/06/26 01:58:25;;;;;;;6.73;3.37;;;;;;;;;;5033192;28;20572;-77
2021/06/26 02:01:29;;;;;;;4.87;3.40;;;;;;;;;;5021252;28;20189;-77
2021/06/26 02:04:33;;;;;;;7.00;3.77;;;;;;;;;;5021306;28;20524;-77
2021/06/26 02:07:37;;;;;;;5.87;3.57;;;;;;;;;;5032905;28;20220;-77
2021/06/26 02:10:42;;;;;;;5.40;3.87;;;;;;;;;;5033666;28;20181;-76
2021/06/26 02:13:46;;;;;;;4.27;3.60;;;;;;;;;;5032263;28;20185;-76
2021/06/26 02:16:50;;;;;;;8.60;3.57;;;;;;;;;;5032425;28;20220;-76
2021/06/26 02:19:54;;;;;;;7.70;3.60;;;;;;;;;;5031070;28;20189;-76
2021/06/26 02:22:58;;;;;;;9.30;4.07;;;;;;;;;;5024251;28;20177;-77
2021/06/26 02:26:02;;;;;;;5.53;3.43;;;;;;;;;;5020801;28;20209;-77
2021/06/26 02:29:06;;;;;;;4.60;3.43;;;;;;;;;;5032667;28;20192;-76
2021/06/26 02:32:11;;;;;;;3.83;3.47;;;;;;;;;;5032984;28;20184;-76
2021/06/26 02:35:15;;;;;;;8.60;4.20;;;;;;;;;;5032900;28;20192;-77
2021/06/26 02:38:19;;;;;;;5.60;4.20;;;;;;;;;;5019845;28;20212;-76
2021/06/26 02:41:23;;;;;;;4.57;3.73;;;;;;;;;;5020689;28;20184;-76
2021/06/26 02:44:27;;;;;;;4.70;3.70;;;;;;;;;;5013349;28;20190;-76
2021/06/26 02:47:31;;;;;;;5.10;4.23;;;;;;;;;;5017514;28;20212;-76
2021/06/26 02:50:36;;;;;;;5.80;4.27;;;;;;;;;;5031865;28;20200;-76
2021/06/26 02:53:40;;;;;;;5.90;3.73;;;;;;;;;;5032185;28;20184;-76
2021/06/26 02:56:44;;;;;;;7.30;3.90;;;;;;;;;;5031792;28;20532;-76
2021/06/26 02:59:48;;;;;;;4.20;3.73;;;;;;;;;;5025273;28;20537;-76
2021/06/26 03:02:53;;;;;;;5.17;4.27;;;;;;;;;;5024112;28;20504;-76
2021/06/26 03:05:57;;;;;;;4.63;4.20;;;;;;;;;;5020465;28;20196;-76
2021/06/26 03:09:02;;;;;;;4.87;4.00;;;;;;;;;;5032584;28;20196;-76
2021/06/26 03:12:07;;;;;;;6.00;3.90;;;;;;;;;;5031668;28;20193;-76
2021/06/26 03:15:12;;;;;;;5.47;4.30;;;;;;;;;;5020065;28;20525;-76
2021/06/26 03:18:16;;;;;;;6.50;4.37;;;;;;;;;;5031558;28;20718;-76
2021/06/26 03:21:20;;;;;;;7.87;4.37;;;;;;;;;;5032580;28;20173;-76
2021/06/26 03:24:27;;;;;;;13.17;4.87;;;;;;;;;;5031943;28;20182;-76
2021/06/26 03:27:31;;;;;;;4.80;4.13;;;;;;;;;;5032344;28;20220;-76
2021/06/26 03:30:36;;;;;;;5.67;4.00;;;;;;;;;;5032190;28;20181;-77
2021/06/26 03:33:40;;;;;;;4.87;3.70;;;;;;;;;;5035705;28;20185;-76
2021/06/26 03:36:46;;;;;;;6.20;3.87;;;;;;;;;;5036212;28;20177;-76
2021/06/26 03:39:50;;;;;;;6.37;4.10;;;;;;;;;;5031396;28;20189;-76
2021/06/26 03:42:54;;;;;;;5.30;4.80;;;;;;;;;;5035747;28;20196;-76
2021/06/26 03:45:58;;;;;;;5.00;4.50;;;;;;;;;;5035847;28;20208;-76
2021/06/26 03:49:04;;;;;;;6.97;4.93;;;;;;;;;;5036093;28;20193;-76
2021/06/26 03:52:08;;;;;;;6.87;4.17;;;;;;;;;;5018294;28;20184;-76
2021/06/26 03:55:12;;;;;;;5.53;4.23;;;;;;;;;;5031080;28;20192;-76
2021/06/26 03:58:25;;;;;;;8.20;4.43;;;;;;;;;;5034627;28;20583;-76
2021/06/26 04:01:29;;;;;;;5.73;4.90;;;;;;;;;;5035518;28;20196;-76
2021/06/26 04:04:35;;;;;;;7.60;5.07;;;;;;;;;;5035919;28;20532;-76
2021/06/26 04:07:39;;;;;;;5.77;5.07;;;;;;;;;;5019679;28;20220;-76
2021/06/26 04:10:44;;;;;;;7.53;5.33;;;;;;;;;;5035342;28;20201;-76
2021/06/26 04:13:48;;;;;;;7.43;5.80;;;;;;;;;;5041689;22;20237;-75
2021/06/26 04:16:52;;;;;;;6.30;5.47;;;;;;;;;;5007777;28;20216;-75
2021/06/26 04:19:56;;;;;;;7.87;5.47;;;;;;;;;;4996553;28;20186;-75
2021/06/26 04:23:00;;;;;;;8.83;6.23;;;;;;;;;;4981969;28;20207;-75
2021/06/26 04:26:04;;;;;;;8.53;5.80;;;;;;;;;;4991560;28;20198;-75
2021/06/26 04:29:08;;;;;;;8.73;5.80;;;;;;;;;;4976393;28;20190;-75
2021/06/26 04:32:14;;;;;;;8.23;5.17;;;;;;;;;;4982670;28;20187;-75
2021/06/26 04:35:20;;;;;;;6.87;4.83;;;;;;;;;;4981443;28;20190;-75
2021/06/26 04:38:25;;;;;;;7.93;4.80;;;;;;;;;;4977711;28;20547;-75
2021/06/26 04:41:29;;;;;;;6.47;4.77;;;;;;;;;;4981761;28;20194;-75
2021/06/26 04:44:34;;;;;;;9.03;5.73;;;;;;;;;;4993639;28;20187;-75
2021/06/26 04:47:40;;;;;;;7.00;5.13;;;;;;;;;;4981689;28;20221;-75
2021/06/26 04:50:45;;;;;;;8.40;6.13;;;;;;;;;;4988411;28;20183;-75
2021/06/26 04:53:50;;;;;;;8.70;6.53;;;;;;;;;;4989346;28;20190;-75
2021/06/26 04:56:54;;;;;;;8.40;6.60;;;;;;;;;;4989105;28;20219;-75
2021/06/26 04:59:58;;;;;;;7.60;6.77;;;;;;;;;;4993811;28;20205;-75
2021/06/26 05:03:03;;;;;;;9.17;5.90;;;;;;;;;;4977810;28;20187;-75
2021/06/26 05:06:07;;;;;;;7.87;6.80;;;;;;;;;;4984325;28;20178;-75
2021/06/26 05:09:11;;;;;;;6.03;5.33;;;;;;;;;;4995923;28;20179;-76
2021/06/26 05:12:15;;;;;;;9.00;5.93;;;;;;;;;;4991712;28;20195;-75
2021/06/26 05:15:19;;;;;;;6.83;6.07;;;;;;;;;;4972878;28;20214;-75
2021/06/26 05:18:23;;;;;;;9.70;7.13;;;;;;;;;;4974149;28;20218;-75
2021/06/26 05:21:27;;;;;;;9.70;6.47;;;;;;;;;;4965132;28;20206;-75
2021/06/26 05:24:31;;;;;;;8.57;6.40;;;;;;;;;;4980836;28;20194;-75
2021/06/26 05:27:35;;;;;;;11.00;7.93;;;;;;;;;;4984726;28;20694;-75
2021/06/26 05:30:40;;;;;;;10.97;8.20;;;;;;;;;;4982944;28;20650;-76
2021/06/26 05:33:45;;;;;;;14.73;9.80;;;;;;;;;;4976156;28;20676;-75
2021/06/26 05:36:49;;;;;;;15.80;10.83;;;;;;;;;;4994133;28;20202;-75
2021/06/26 05:39:53;;;;;;;23.53;16.33;;;;;;;;;;4994839;28;20179;-76
2021/06/26 05:42:58;;;;;;;18.43;14.30;;;;;;;;;;4976566;28;20195;-75
2021/06/26 05:46:02;;;;;;;24.20;15.87;;;;;;;;;;4993908;28;20225;-76
2021/06/26 05:49:06;;;;;;;23.37;15.90;;;;;;;;;;4994734;28;20234;-75
2021/06/26 05:52:10;;;;;;;24.10;16.43;;;;;;;;;;4974644;28;20183;-76
2021/06/26 05:55:20;;;;;;;22.00;13.73;;;;;;;;;;4977480;28;20186;-76
2021/06/26 05:58:27;;;;;;;27.67;18.70;;;;;;;;;;4987785;28;20218;-76
2021/06/26 06:01:31;;;;;;;25.83;17.90;;;;;;;;;;4978571;28;20198;-77
2021/06/26 06:04:36;;;;;;;26.47;19.67;;;;;;;;;;4977600;28;20186;-76
2021/06/26 06:07:41;;;;;;;26.87;19.60;;;;;;;;;;5004204;28;20597;-76
2021/06/26 06:10:46;;;;;;;28.13;20.47;;;;;;;;;;4987947;28;20201;-76
2021/06/26 06:13:50;;;;;;;32.57;20.17;;;;;;;;;;4995892;28;20218;-75
2021/06/26 06:16:55;;;;;;;26.33;18.67;;;;;;;;;;4982516;28;20704;-76
2021/06/26 06:20:00;;;;;;;25.13;20.33;;;;;;;;;;4979100;28;20191;-75
2021/06/26 06:23:04;;;;;;;27.30;19.90;;;;;;;;;;4983482;28;20208;-75
2021/06/26 06:26:08;;;;;;;26.80;19.70;;;;;;;;;;4997926;28;20541;-75
2021/06/26 06:29:13;;;;;;;27.57;20.07;;;;;;;;;;4998583;28;20696;-76
2021/06/26 06:32:17;;;;;;;22.43;18.67;;;;;;;;;;4978864;28;20223;-76
2021/06/26 06:35:21;;;;;;;22.53;17.03;;;;;;;;;;4995883;28;20205;-76
2021/06/26 06:38:26;;;;;;;24.30;18.30;;;;;;;;;;4980422;28;20221;-77
2021/06/26 06:41:30;;;;;;;24.20;17.20;;;;;;;;;;4976732;28;20202;-76
2021/06/26 06:44:34;;;;;;;20.83;16.20;;;;;;;;;;4988832;28;20693;-77
2021/06/26 06:47:39;;;;;;;19.53;15.70;;;;;;;;;;4983218;28;20234;-76
2021/06/26 06:50:43;;;;;;;21.80;15.80;;;;;;;;;;4977833;28;20175;-76
2021/06/26 06:53:47;;;;;;;17.33;14.27;;;;;;;;;;4976955;28;20656;-77
2021/06/26 06:56:52;;;;;;;18.30;12.30;;;;;;;;;;4992302;28;20229;-76
2021/06/26 06:59:29;;;;;;;16.10;13.93;;;;;;;;;;5025835;23;20247;-76
2021/06/26 07:02:33;;;;;;;17.40;12.50;;;;;;;;;;5026118;28;20220;-76
2021/06/26 07:05:38;;;;;;;16.27;11.77;;;;;;;;;;5016299;28;20206;-76
2021/06/26 07:08:42;;;;;;;13.23;11.80;;;;;;;;;;5030872;28;20216;-76
2021/06/26 07:11:47;;;;;;;13.77;11.97;;;;;;;;;;5039569;28;20193;-77
2021/06/26 07:14:51;;;;;;;14.30;12.07;;;;;;;;;;5029288;28;20189;-75
2021/06/26 07:17:55;;;;;;;12.90;11.60;;;;;;;;;;5033405;28;20341;-74
2021/06/26 07:20:59;;;;;;;12.70;11.33;;;;;;;;;;5024990;28;20246;-74
2021/06/26 07:24:03;;;;;;;11.80;10.60;;;;;;;;;;5019305;28;20185;-74
2021/06/26 07:27:08;;;;;;;12.07;9.50;;;;;;;;;;5029561;28;20223;-74
2021/06/26 07:30:13;;;;;;;9.47;7.93;;;;;;;;;;5026330;28;20177;-73
2021/06/26 07:33:17;;;;;;;9.30;7.50;;;;;;;;;;5033565;28;20208;-73
2021/06/26 07:36:21;;;;;;;8.87;7.73;;;;;;;;;;5041987;28;20193;-73
2021/06/26 07:39:25;;;;;;;13.93;8.03;;;;;;;;;;5029172;28;20184;-73
2021/06/26 07:42:30;;;;;;;8.13;7.33;;;;;;;;;;5023556;28;20199;-74
2021/06/26 07:45:34;;;;;;;9.63;8.57;;;;;;;;;;5041224;28;20200;-74
2021/06/26 07:48:38;;;;;;;9.70;8.27;;;;;;;;;;5035513;28;20217;-74
2021/06/26 07:51:43;;;;;;;11.23;7.57;;;;;;;;;;5025775;28;20187;-73
2021/06/26 07:54:47;;;;;;;10.03;7.73;;;;;;;;;;5026237;28;20567;-73
2021/06/26 07:57:51;;;;;;;8.83;7.83;;;;;;;;;;5027129;28;20695;-74
2021/06/26 08:00:56;;;;;;;9.40;7.53;;;;;;;;;;5017290;28;20194;-73
2021/06/26 08:04:01;;;;;;;8.63;7.83;;;;;;;;;;5016111;28;20210;-74
2021/06/26 08:07:06;;;;;;;6.40;5.67;;;;;;;;;;5016009;28;20227;-74
2021/06/26 08:10:10;;;;;;;7.13;6.40;;;;;;;;;;5018142;28;20198;-73
2021/06/26 08:13:16;;;;;;;7.03;6.17;;;;;;;;;;5016282;28;20667;-74
2021/06/26 08:16:20;;;;;;;6.53;5.83;;;;;;;;;;5025402;28;20523;-74
2021/06/26 08:19:24;;;;;;;6.60;5.80;;;;;;;;;;5035430;28;20179;-74
2021/06/26 08:22:28;;;;;;;7.70;5.45;;;;;;;;;;5017785;28;20649;-74
2021/06/26 08:25:32;;;;;;;5.63;5.00;;;;;;;;;;5015662;28;20183;-74
2021/06/26 08:28:37;;;;;;;6.30;5.70;;;;;;;;;;5028281;28;20212;-73
2021/06/26 08:31:41;;;;;;;7.50;5.95;;;;;;;;;;5023185;28;20536;-73
2021/06/26 08:34:45;;;;;;;7.05;5.55;;;;;;;;;;5015579;28;20194;-73
2021/06/26 08:37:51;;;;;;;8.32;5.50;;;;;;;;;;5023274;28;20217;-73
2021/06/26 08:40:56;;;;;;;5.38;4.88;;;;;;;;;;5034604;28;20187;-74
2021/06/26 08:44:01;;;;;;;7.82;5.13;;;;;;;;;;5016448;28;20203;-73
2021/06/26 08:47:06;;;;;;;7.47;4.90;;;;;;;;;;5014954;28;20225;-74
2021/06/26 08:50:10;;;;;;;7.53;4.88;;;;;;;;;;5017253;28;20214;-73
2021/06/26 08:53:14;;;;;;;5.03;4.47;;;;;;;;;;5029152;28;20185;-73
2021/06/26 08:56:18;;;;;;;4.43;4.03;;;;;;;;;;5037463;28;20196;-73
2021/06/26 08:59:23;;;;;;;6.55;3.40;;;;;;;;;;5054706;28;20672;-74
2021/06/26 09:02:29;;;;;;;6.10;4.32;;;;;;;;;;5015003;28;20635;-74
2021/06/26 09:05:34;;;;;;;4.47;3.70;;;;;;;;;;5031725;28;20184;-74
2021/06/26 09:08:49;;;;;;;7.25;3.78;;;;;;;;;;5034461;28;20694;-74
2021/06/26 09:12:07;;;;;;;4.20;3.80;;;;;;;;;;5028486;28;20200;-73
2021/06/26 09:15:23;;;;;;;4.55;4.00;;;;;;;;;;5002779;28;20193;-74
2021/06/26 09:18:27;;;;;;;3.60;3.30;;;;;;;;;;5014019;28;20212;-73
2021/06/26 09:21:34;;;;;;;7.03;4.32;;;;;;;;;;5020528;28;20528;-73
2021/06/26 09:24:47;;;;;;;7.70;4.10;;;;;;;;;;5026700;28;20186;-73
2021/06/26 09:27:51;;;;;;;3.90;3.47;;;;;;;;;;5013555;28;20220;-73
2021/06/26 09:30:55;;;;;;;4.50;3.97;;;;;;;;;;5014179;28;20177;-73
2021/06/26 09:34:01;;;;;;;4.88;4.38;;;;;;;;;;5022873;28;20654;-73
2021/06/26 09:37:09;;;;;;;10.73;4.47;;;;;;;;;;5022432;28;20225;-73
2021/06/26 09:40:22;;;;;;;4.07;3.67;;;;;;;;;;5020301;28;20180;-73
2021/06/26 09:43:29;;;;;;;4.25;3.58;;;;;;;;;;5014355;28;20190;-74
2021/06/26 09:46:44;;;;;;;4.70;3.58;;;;;;;;;;5013649;28;20186;-74
2021/06/26 09:49:48;;;;;;;6.55;4.18;;;;;;;;;;5022555;28;20202;-74
2021/06/26 09:52:58;;;;;;;3.70;3.40;;;;;;;;;;5032160;28;20207;-74
2021/06/26 09:56:03;;;;;;;3.90;3.60;;;;;;;;;;5028678;28;20188;-74
2021/06/26 09:59:08;;;;;;;4.15;3.33;;;;;;;;;;5014955;28;20553;-74
2021/06/26 10:02:22;;;;;;;31.08;4.82;;;;;;;;;;5013395;28;20209;-74
2021/06/26 10:05:27;;;;;;;5.53;3.40;;;;;;;;;;5031989;28;20181;-74
2021/06/26 10:08:32;;;;;;;3.47;3.17;;;;;;;;;;5012965;28;20220;-74
2021/06/26 10:11:39;;;;;;;4.75;3.20;;;;;;;;;;5013347;28;20682;-73
2021/06/26 10:14:45;;;;;;;3.88;3.50;;;;;;;;;;5012960;28;20181;-75
2021/06/26 10:17:49;;;;;;;4.05;3.67;;;;;;;;;;5013632;28;20217;-74
2021/06/26 10:20:55;;;;;;;4.30;3.60;;;;;;;;;;5014035;28;20178;-74
2021/06/26 10:24:04;;;;;;;6.88;3.60;;;;;;;;;;5013904;28;20185;-74
2021/06/26 10:27:22;;;;;;;3.58;3.28;;;;;;;;;;5013558;28;20217;-74
2021/06/26 10:30:26;;;;;;;5.95;3.88;;;;;;;;;;5013532;28;20206;-74
2021/06/26 10:33:31;;;;;;;12.57;3.70;;;;;;;;;;5013964;28;20184;-74
2021/06/26 10:36:36;;;;;;;3.20;2.90;;;;;;;;;;5013712;28;20181;-74
2021/06/26 10:39:41;;;;;;;4.93;2.97;;;;;;;;;;5012935;28;20177;-74
2021/06/26 10:42:45;;;;;;;5.95;3.60;;;;;;;;;;5013578;28;20516;-73
2021/06/26 10:45:52;;;;;;;3.63;3.33;;;;;;;;;;5013674;28;20182;-74
2021/06/26 10:49:02;;;;;;;3.55;3.25;;;;;;;;;;5013204;28;20222;-74
2021/06/26 10:52:16;;;;;;;4.53;3.30;;;;;;;;;;5012826;28;20190;-74
2021/06/26 10:55:33;;;;;;;3.58;3.28;;;;;;;;;;5013261;28;20185;-73
2021/06/26 10:58:44;;;;;;;3.90;3.50;;;;;;;;;;5012308;28;20227;-73
2021/06/26 11:01:56;;;;;;;3.10;2.80;;;;;;;;;;5012689;28;20194;-74
2021/06/26 11:05:00;;;;;;;6.25;3.20;;;;;;;;;;5013356;28;20518;-74
2021/06/26 11:08:15;;;;;;;7.38;3.15;;;;;;;;;;5013221;28;20569;-74
2021/06/26 11:11:26;;;;;;;4.63;3.30;;;;;;;;;;5013295;28;20645;-75
2021/06/26 11:14:31;;;;;;;5.15;2.90;;;;;;;;;;5022616;28;20532;-75
2021/06/26 11:17:37;;;;;;;3.60;3.30;;;;;;;;;;5030395;28;20219;-73
2021/06/26 11:20:42;;;;;;;4.78;3.35;;;;;;;;;;5027000;28;20186;-74
2021/06/26 11:23:51;;;;;;;8.13;3.38;;;;;;;;;;5013637;28;20549;-74
2021/06/26 11:26:56;;;;;;;4.07;3.67;;;;;;;;;;5019598;28;20218;-74
2021/06/26 11:30:05;;;;;;;4.88;3.63;;;;;;;;;;5023804;28;20205;-74
2021/06/26 11:33:09;;;;;;;5.20;3.67;;;;;;;;;;5024029;28;20204;-74
2021/06/26 11:36:14;;;;;;;3.60;3.30;;;;;;;;;;5013405;28;20644;-74
2021/06/26 11:39:22;;;;;;;4.05;3.60;;;;;;;;;;5012289;28;20197;-74
2021/06/26 11:42:26;;;;;;;3.70;3.40;;;;;;;;;;5022121;28;20194;-73
2021/06/26 11:45:36;;;;;;;3.85;3.45;;;;;;;;;;5030566;28;20208;-73
2021/06/26 11:48:45;;;;;;;3.17;2.88;;;;;;;;;;5013874;28;20699;-74
2021/06/26 11:51:53;;;;;;;6.32;3.78;;;;;;;;;;5011918;28;20186;-75
2021/06/26 11:55:00;;;;;;;17.50;3.92;;;;;;;;;;5016513;28;20182;-74
2021/06/26 11:58:04;;;;;;;3.78;3.20;;;;;;;;;;5022860;28;20228;-73
2021/06/26 12:01:13;;;;;;;5.78;3.58;;;;;;;;;;5033718;28;20181;-74
2021/06/26 12:04:28;;;;;;;4.13;3.63;;;;;;;;;;5034745;28;20193;-74
2021/06/26 12:07:37;;;;;;;4.07;3.17;;;;;;;;;;5035753;28;20213;-73
2021/06/26 12:10:44;;;;;;;10.55;4.07;;;;;;;;;;5015155;28;20198;-74
2021/06/26 12:13:51;;;;;;;3.35;3.15;;;;;;;;;;5021345;28;20205;-74
2021/06/26 12:17:21;;;;;;;4.32;3.40;;;;;;;;;;5015009;28;20221;-74
2021/06/26 12:20:32;;;;;;;6.20;3.20;;;;;;;;;;5016078;28;20170;-74
2021/06/26 12:23:44;;;;;;;3.72;3.40;;;;;;;;;;5023222;28;20182;-74
2021/06/26 12:26:48;;;;;;;5.78;3.45;;;;;;;;;;5015282;28;20193;-74
2021/06/26 12:29:53;;;;;;;4.20;3.55;;;;;;;;;;5026665;28;20213;-74
2021/06/26 12:33:13;;;;;;;3.33;3.03;;;;;;;;;;5032189;28;20189;-74
2021/06/26 12:36:19;;;;;;;3.30;3.00;;;;;;;;;;5019310;28;20190;-74
2021/06/26 12:39:32;;;;;;;3.88;3.20;;;;;;;;;;5030150;28;20184;-74
2021/06/26 12:43:10;;;;;;;3.88;3.20;;;;;;;;;;5025656;28;20178;-74
2021/06/26 12:46:15;;;;;;;3.53;2.70;;;;;;;;;;5029468;28;20190;-74
2021/06/26 12:49:23;;;;;;;9.32;3.78;;;;;;;;;;5029519;28;20189;-75
2021/06/26 12:52:28;;;;;;;3.58;3.13;;;;;;;;;;5024900;28;20190;-74
2021/06/26 12:55:32;;;;;;;3.33;3.00;;;;;;;;;;5010852;28;20186;-74
2021/06/26 12:58:38;;;;;;;3.83;2.67;;;;;;;;;;5020881;28;20228;-74
2021/06/26 13:01:45;;;;;;;3.20;3.00;;;;;;;;;;5031088;28;20189;-74
2021/06/26 13:04:54;;;;;;;5.03;3.08;;;;;;;;;;5011652;28;20766;-74
2021/06/26 13:08:06;;;;;;;5.00;2.70;;;;;;;;;;5016566;28;20695;-74
2021/06/26 13:11:11;;;;;;;3.78;2.72;;;;;;;;;;5031265;28;20537;-74
2021/06/26 13:14:16;;;;;;;3.75;2.97;;;;;;;;;;5013576;28;20208;-74
2021/06/26 13:17:22;;;;;;;3.45;3.15;;;;;;;;;;5012293;28;20211;-74
2021/06/26 13:20:27;;;;;;;7.20;3.20;;;;;;;;;;5023630;28;20196;-73
2021/06/26 13:23:31;;;;;;;6.53;3.15;;;;;;;;;;5033609;28;20204;-73
2021/06/26 13:26:35;;;;;;;3.25;2.75;;;;;;;;;;5014211;28;20210;-74
2021/06/26 13:29:39;;;;;;;2.60;2.40;;;;;;;;;;5015870;28;20216;-73
2021/06/26 13:32:46;;;;;;;5.32;2.67;;;;;;;;;;5028167;28;20662;-74
2021/06/26 13:35:51;;;;;;;2.80;2.60;;;;;;;;;;5033446;28;20199;-73
2021/06/26 13:38:56;;;;;;;3.75;2.42;;;;;;;;;;5034044;28;20219;-74
2021/06/26 13:42:00;;;;;;;4.18;2.30;;;;;;;;;;5014463;28;20639;-74
2021/06/26 13:45:05;;;;;;;2.60;2.40;;;;;;;;;;5031191;28;20666;-74
2021/06/26 13:48:10;;;;;;;4.53;2.58;;;;;;;;;;5023114;28;20219;-74
2021/06/26 13:51:14;;;;;;;2.30;1.98;;;;;;;;;;5028153;28;20208;-74
2021/06/26 13:54:18;;;;;;;2.20;1.70;;;;;;;;;;5034129;28;20189;-74
2021/06/26 13:57:22;;;;;;;9.35;2.30;;;;;;;;;;5031259;28;20236;-74
2021/06/26 14:00:26;;;;;;;4.40;1.80;;;;;;;;;;5034004;28;20181;-74
2021/06/26 14:03:30;;;;;;;5.78;1.63;;;;;;;;;;5032515;28;20193;-74
2021/06/26 14:06:35;;;;;;;4.55;2.30;;;;;;;;;;5019541;28;20197;-74
2021/06/26 14:09:39;;;;;;;2.45;2.00;;;;;;;;;;5024577;28;20193;-74
2021/06/26 14:12:44;;;;;;;2.47;1.90;;;;;;;;;;5033662;28;20181;-74
2021/06/26 14:15:48;;;;;;;5.07;3.03;;;;;;;;;;5031474;28;20197;-74
2021/06/26 14:18:53;;;;;;;2.25;1.80;;;;;;;;;;5019332;28;20558;-74
2021/06/26 14:21:58;;;;;;;5.88;2.40;;;;;;;;;;5021027;28;20193;-74
2021/06/26 14:25:02;;;;;;;2.25;2.03;;;;;;;;;;5014800;28;20648;-74
2021/06/26 14:28:06;;;;;;;3.40;1.92;;;;;;;;;;5014999;28;20567;-74
2021/06/26 14:31:11;;;;;;;4.72;2.10;;;;;;;;;;5017325;28;20205;-74
2021/06/26 14:34:15;;;;;;;10.70;2.53;;;;;;;;;;5035092;28;20197;-73
2021/06/26 14:37:19;;;;;;;17.48;3.00;;;;;;;;;;5029186;28;20221;-73
2021/06/26 14:40:23;;;;;;;2.35;2.15;;;;;;;;;;5013579;28;20186;-73
2021/06/26 14:43:27;;;;;;;2.13;2.00;;;;;;;;;;5013387;28;20203;-73
2021/06/26 14:46:31;;;;;;;2.45;1.95;;;;;;;;;;5013872;28;20182;-73
2021/06/26 14:49:36;;;;;;;2.35;2.00;;;;;;;;;;5013886;28;20182;-73
2021/06/26 14:52:40;;;;;;;2.42;2.08;;;;;;;;;;5013216;28;20193;-73
2021/06/26 14:55:52;;;;;;;3.08;2.00;;;;;;;;;;5014190;28;20197;-74
2021/06/26 14:58:57;;;;;;;2.90;2.35;;;;;;;;;;5016319;28;20225;-74
2021/06/26 15:02:01;;;;;;;2.58;2.20;;;;;;;;;;5033140;28;20181;-74
2021/06/26 15:05:07;;;;;;;3.97;2.53;;;;;;;;;;5029269;28;20667;-73
2021/06/26 15:08:11;;;;;;;3.60;2.08;;;;;;;;;;5029712;28;20216;-74
2021/06/26 15:11:15;;;;;;;2.17;1.85;;;;;;;;;;5028318;28;20577;-74
2021/06/26 15:14:19;;;;;;;2.25;2.08;;;;;;;;;;5019334;28;20205;-74
2021/06/26 15:17:24;;;;;;;5.20;2.20;;;;;;;;;;5031342;28;20216;-73
2021/06/26 15:20:28;;;;;;;2.30;2.10;;;;;;;;;;5028832;28;20366;-74
2021/06/26 15:23:32;;;;;;;2.85;1.88;;;;;;;;;;5011319;28;20743;-74
2021/06/26 15:26:36;;;;;;;2.33;2.10;;;;;;;;;;5026672;28;20212;-73
2021/06/26 15:29:41;;;;;;;2.28;2.08;;;;;;;;;;5012349;28;20178;-74
2021/06/26 15:32:45;;;;;;;1.90;1.80;;;;;;;;;;5013269;28;20188;-74
2021/06/26 15:35:52;;;;;;;2.20;2.00;;;;;;;;;;5013197;28;20184;-74
2021/06/26 15:38:57;;;;;;;1.90;1.80;;;;;;;;;;5013209;28;20220;-74
2021/06/26 15:42:02;;;;;;;2.95;1.85;;;;;;;;;;5021669;28;20192;-74
2021/06/26 15:45:09;;;;;;;2.80;1.67;;;;;;;;;;5027073;28;20190;-74
2021/06/26 15:48:13;;;;;;;2.20;2.00;;;;;;;;;;5022954;28;20765;-74
2021/06/26 15:51:17;;;;;;;5.15;2.00;;;;;;;;;;5018902;28;20213;-74
2021/06/26 15:54:22;;;;;;;2.30;2.10;;;;;;;;;;5021751;28;20189;-74
2021/06/26 15:57:26;;;;;;;3.20;2.08;;;;;;;;;;5037517;28;20229;-74
2021/06/26 16:00:30;;;;;;;3.83;1.92;;;;;;;;;;5039777;28;20661;-74
2021/06/26 16:03:34;;;;;;;2.13;1.75;;;;;;;;;;5022185;28;20196;-73
2021/06/26 16:06:38;;;;;;;2.92;1.70;;;;;;;;;;5012576;28;20184;-74
2021/06/26 16:09:43;;;;;;;4.22;2.10;;;;;;;;;;5025116;28;20231;-74
2021/06/26 16:12:47;;;;;;;1.98;1.70;;;;;;;;;;5012730;28;20522;-74
2021/06/26 16:15:52;;;;;;;5.63;2.28;;;;;;;;;;5030451;28;20205;-74
2021/06/26 16:18:56;;;;;;;5.53;2.08;;;;;;;;;;5032134;28;20223;-73
2021/06/26 16:22:04;;;;;;;3.15;1.67;;;;;;;;;;5032118;28;20174;-73
2021/06/26 16:25:09;;;;;;;4.57;1.80;;;;;;;;;;5031212;28;20537;-73
2021/06/26 16:28:14;;;;;;;1.60;1.50;;;;;;;;;;5031360;28;20212;-74
2021/06/26 16:31:18;;;;;;;8.13;2.10;;;;;;;;;;5029739;28;20769;-74
2021/06/26 16:34:22;;;;;;;9.70;2.17;;;;;;;;;;5011666;28;20260;-74
2021/06/26 16:37:30;;;;;;;3.20;1.90;;;;;;;;;;5037001;28;20574;-74
2021/06/26 16:40:36;;;;;;;6.27;1.70;;;;;;;;;;5050111;28;20185;-74
2021/06/26 16:43:41;;;;;;;2.77;1.70;;;;;;;;;;5030949;28;20206;-74
2021/06/26 16:46:45;;;;;;;7.90;1.80;;;;;;;;;;5031530;28;20179;-73
2021/06/26 16:49:50;;;;;;;2.23;1.60;;;;;;;;;;5031575;28;20199;-74
2021/06/26 16:52:54;;;;;;;1.87;1.77;;;;;;;;;;5031415;28;20192;-74
2021/06/26 16:56:00;;;;;;;4.30;2.27;;;;;;;;;;5031067;28;20556;-74
2021/06/26 16:59:04;;;;;;;2.07;1.67;;;;;;;;;;5031454;28;20214;-74
2021/06/26 17:02:09;;;;;;;24.63;2.77;;;;;;;;;;5031275;28;20195;-74
2021/06/26 17:05:13;;;;;;;11.73;2.67;;;;;;;;;;5031075;28;20209;-73
2021/06/26 17:08:19;;;;;;;10.87;2.17;;;;;;;;;;5011040;28;20223;-73
2021/06/26 17:11:24;;;;;;;4.17;2.00;;;;;;;;;;5028083;28;20754;-74
2021/06/26 17:14:28;;;;;;;2.70;1.90;;;;;;;;;;5029885;28;20684;-74
2021/06/26 17:17:33;;;;;;;5.60;1.97;;;;;;;;;;5010535;28;20248;-73
2021/06/26 17:20:38;;;;;;;6.40;2.03;;;;;;;;;;5010912;28;20667;-74
2021/06/26 17:23:42;;;;;;;5.20;1.73;;;;;;;;;;5010517;28;20185;-74
2021/06/26 17:26:47;;;;;;;3.53;1.63;;;;;;;;;;5023312;28;20652;-74
2021/06/26 17:29:51;;;;;;;6.03;2.00;;;;;;;;;;5030606;28;20191;-75
2021/06/26 17:32:55;;;;;;;2.23;2.00;;;;;;;;;;5030509;28;20208;-74
2021/06/26 17:36:00;;;;;;;4.43;2.10;;;;;;;;;;5030964;28;20634;-73
2021/06/26 17:39:05;;;;;;;3.33;1.83;;;;;;;;;;5030556;28;20194;-74
2021/06/26 17:42:10;;;;;;;6.23;2.13;;;;;;;;;;5030731;28;20181;-74
2021/06/26 17:45:15;;;;;;;2.10;1.90;;;;;;;;;;5030232;28;20183;-74
2021/06/26 17:48:21;;;;;;;2.90;2.10;;;;;;;;;;5030400;28;20223;-74
2021/06/26 17:51:25;;;;;;;3.27;2.10;;;;;;;;;;5028791;28;20214;-73
2021/06/26 17:54:29;;;;;;;2.30;1.83;;;;;;;;;;5030278;28;20230;-74
2021/06/26 17:57:33;;;;;;;2.27;2.07;;;;;;;;;;5029247;28;20232;-75
2021/06/26 18:00:38;;;;;;;3.60;2.20;;;;;;;;;;5025246;28;20189;-75
2021/06/26 18:03:42;;;;;;;3.23;2.10;;;;;;;;;;5030100;28;20644;-74
2021/06/26 18:06:46;;;;;;;2.47;2.17;;;;;;;;;;5029147;28;20181;-74
2021/06/26 18:09:50;;;;;;;4.97;2.17;;;;;;;;;;5029753;28;20206;-74
2021/06/26 18:12:57;;;;;;;3.77;2.57;;;;;;;;;;5030013;28;20680;-74
2021/06/26 18:16:02;;;;;;;8.13;2.97;;;;;;;;;;5030249;28;20189;-74
2021/06/26 18:19:06;;;;;;;3.70;2.63;;;;;;;;;;5029295;28;20180;-74
2021/06/26 18:22:11;;;;;;;5.67;2.60;;;;;;;;;;5009392;28;20179;-74
2021/06/26 18:25:15;;;;;;;4.70;2.90;;;;;;;;;;5028483;28;20190;-74
2021/06/26 18:28:19;;;;;;;2.93;2.50;;;;;;;;;;5029806;28;20707;-74